Latest Weather Observations for Hay Point

IDQ60801

Issued at 7:02 am EST Tuesday 7 July 2020 (issued every 10 minutes, with the page automatically refreshed every 10 minutes)

About weather observations | Map of weather stations | Latest weather observations for QLD | Other Formats
Station Details ID: 033317 Name: HAY POINT Lat: -21.29 Lon: 149.30 Height: 7.0 m
Data from the previous 72 hours. | See also: Recent months for locations in Queensland
Date/Time
EST
Temp
°C
App
Temp
°C
Dew
Point
°C
Rel
Hum
%
Delta-T
°C
Wind Press
QNH
hPa
Press
MSL
hPa
Rain since
9am
mm
Dir  Spd
km/h
Gust
km/h
Spd
kts
Gust
kts
07/07:00am - - - - - S 26 35 14 19 - - -
07/06:30am - - - - - S 28 33 15 18 - - -
07/06:00am - - - - - S 28 33 15 18 - - -
07/05:30am - - - - - S 26 33 14 18 - - -
07/05:00am - - - - - S 22 30 12 16 - - -
07/04:30am - - - - - S 24 32 13 17 - - -
07/04:00am - - - - - S 24 28 13 15 - - -
07/03:30am - - - - - SSW 20 26 11 14 - - -
07/03:00am - - - - - S 20 26 11 14 - - -
07/02:30am - - - - - S 26 35 14 19 - - -
07/02:00am - - - - - S 26 33 14 18 - - -
07/01:30am - - - - - S 24 28 13 15 - - -
07/01:00am - - - - - S 22 28 12 15 - - -
07/12:30am - - - - - S 19 24 10 13 - - -
07/12:00am - - - - - S 20 26 11 14 - - -
 
Date/Time
EST
Temp
°C
App
Temp
°C
Dew
Point
°C
Rel
Hum
%
Delta-T
°C
Wind Press
QNH
hPa
Press
MSL
hPa
Rain since
9am
mm
Dir  Spd
km/h
Gust
km/h
Spd
kts
Gust
kts
06/11:30pm - - - - - SSW 15 19 8 10 - - -
06/11:00pm - - - - - SSW 15 19 8 10 - - -
06/10:30pm - - - - - S 13 22 7 12 - - -
06/10:00pm - - - - - SSW 15 19 8 10 - - -
06/09:30pm - - - - - SSW 15 19 8 10 - - -
06/09:00pm - - - - - S 15 19 8 10 - - -
06/08:30pm - - - - - S 19 22 10 12 - - -
06/08:00pm - - - - - S 20 24 11 13 - - -
06/07:30pm - - - - - S 20 26 11 14 - - -
06/07:00pm - - - - - S 24 30 13 16 - - -
06/06:30pm - - - - - S 24 30 13 16 - - -
06/06:00pm - - - - - SSE 28 35 15 19 - - -
06/05:30pm - - - - - SSE 30 37 16 20 - - -
06/05:00pm - - - - - SSE 32 39 17 21 - - -
06/04:30pm - - - - - SSE 30 35 16 19 - - -
06/04:00pm - - - - - SSE 32 37 17 20 - - -
06/03:30pm - - - - - SSE 32 39 17 21 - - -
06/03:00pm - - - - - SSE 32 37 17 20 - - -
06/02:30pm - - - - - SSE 32 39 17 21 - - -
06/02:00pm - - - - - SSE 32 35 17 19 - - -
06/01:30pm - - - - - SSE 28 35 15 19 - - -
06/01:00pm - - - - - SSE 33 37 18 20 - - -
06/12:30pm - - - - - SSE 32 37 17 20 - - -
06/12:00pm - - - - - SSE 30 35 16 19 - - -
06/11:30am - - - - - SSE 28 33 15 18 - - -
06/11:00am - - - - - SSE 22 30 12 16 - - -
06/10:30am - - - - - S 26 33 14 18 - - -
06/10:00am - - - - - S 28 35 15 19 - - -
06/09:30am - - - - - S 26 32 14 17 - - -
06/09:00am - - - - - S 28 33 15 18 - - -
06/08:30am - - - - - S 26 33 14 18 - - -
06/08:00am - - - - - S 24 32 13 17 - - -
06/07:30am - - - - - S 22 30 12 16 - - -
06/07:00am - - - - - SSW 19 26 10 14 - - -
06/06:30am - - - - - S 20 26 11 14 - - -
06/06:00am - - - - - S 22 30 12 16 - - -
06/05:30am - - - - - SSW 17 24 9 13 - - -
06/05:00am - - - - - S 20 26 11 14 - - -
06/04:30am - - - - - S 26 33 14 18 - - -
06/04:00am - - - - - S 20 28 11 15 - - -
06/03:30am - - - - - S 20 28 11 15 - - -
06/03:00am - - - - - S 22 33 12 18 - - -
06/02:30am - - - - - SSW 19 24 10 13 - - -
06/02:00am - - - - - SSW 17 20 9 11 - - -
06/01:30am - - - - - SSW 13 17 7 9 - - -
06/01:00am - - - - - SSW 17 17 9 9 - - -
06/12:30am - - - - - SSW 15 19 8 10 - - -
06/12:00am - - - - - SSW 15 17 8 9 - - -
 
Date/Time
EST
Temp
°C
App
Temp
°C
Dew
Point
°C
Rel
Hum
%
Delta-T
°C
Wind Press
QNH
hPa
Press
MSL
hPa
Rain since
9am
mm
Dir  Spd
km/h
Gust
km/h
Spd
kts
Gust
kts
05/11:30pm - - - - - SSW 15 17 8 9 - - -
05/11:00pm - - - - - SSW 13 13 7 7 - - -
05/10:30pm - - - - - SSW 11 13 6 7 - - -
05/10:00pm - - - - - SSW 11 13 6 7 - - -
05/09:30pm - - - - - SSW 13 15 7 8 - - -
05/09:00pm - - - - - SSW 15 15 8 8 - - -
05/08:30pm - - - - - SSW 15 17 8 9 - - -
05/08:00pm - - - - - SSW 15 17 8 9 - - -
05/07:30pm - - - - - SSW 15 17 8 9 - - -
05/07:00pm - - - - - SSW 15 19 8 10 - - -
05/06:30pm - - - - - SSE 24 28 13 15 - - -
05/06:00pm - - - - - SSE 24 30 13 16 - - -
05/05:30pm - - - - - SSE 22 30 12 16 - - -
05/05:00pm - - - - - SSE 24 30 13 16 - - -
05/04:30pm - - - - - SSE 24 30 13 16 - - -
05/04:00pm - - - - - SSE 26 30 14 16 - - -
05/03:30pm - - - - - SSE 28 33 15 18 - - -
05/03:00pm - - - - - SSE 30 33 16 18 - - -
05/02:30pm - - - - - SSE 24 32 13 17 - - -
05/02:00pm - - - - - SSE 24 30 13 16 - - -
05/01:30pm - - - - - SSE 28 33 15 18 - - -
05/01:00pm - - - - - SSE 32 37 17 20 - - -
05/12:30pm - - - - - SSE 30 33 16 18 - - -
05/12:00pm - - - - - SSE 28 32 15 17 - - -
05/11:30am - - - - - S 22 28 12 15 - - -
05/11:00am - - - - - SSE 24 32 13 17 - - -
05/10:30am - - - - - S 30 35 16 19 - - -
05/10:00am - - - - - SSE 32 44 17 24 - - -
05/09:30am - - - - - SSE 33 43 18 23 - - -
05/09:00am - - - - - S 35 46 19 25 - - -
05/08:30am - - - - - S 30 39 16 21 - - -
05/08:00am - - - - - S 28 33 15 18 - - -
05/07:30am - - - - - SSW 22 30 12 16 - - -
05/07:00am - - - - - S 28 33 15 18 - - -
05/06:30am - - - - - S 30 37 16 20 - - -
05/06:00am - - - - - S 32 39 17 21 - - -
05/05:30am - - - - - S 28 39 15 21 - - -
05/05:09am - - - - - S 28 46 15 25 - - -
05/05:00am - - - - - SSE 33 46 18 25 - - -
05/04:55am - - - - - SSE 32 50 17 27 - - -
05/04:30am - - - - - S 28 35 15 19 - - -
05/04:00am - - - - - S 30 39 16 21 - - -
05/03:30am - - - - - S 26 35 14 19 - - -
05/03:00am - - - - - S 28 33 15 18 - - -
05/02:30am - - - - - S 26 32 14 17 - - -
05/02:00am - - - - - S 26 32 14 17 - - -
05/01:30am - - - - - S 24 30 13 16 - - -
05/01:00am - - - - - S 20 26 11 14 - - -
05/12:30am - - - - - SSW 15 19 8 10 - - -
05/12:00am - - - - - SSW 17 20 9 11 - - -
 
Date/Time
EST
Temp
°C
App
Temp
°C
Dew
Point
°C
Rel
Hum
%
Delta-T
°C
Wind Press
QNH
hPa
Press
MSL
hPa
Rain since
9am
mm
Dir  Spd
km/h
Gust
km/h
Spd
kts
Gust
kts
04/11:30pm - - - - - SSW 17 22 9 12 - - -
04/11:00pm - - - - - S 17 19 9 10 - - -
04/10:30pm - - - - - SSW 17 20 9 11 - - -
04/10:00pm - - - - - SSW 17 19 9 10 - - -
04/09:30pm - - - - - SSW 17 20 9 11 - - -
04/09:00pm - - - - - SSW 15 17 8 9 - - -
04/08:30pm - - - - - SSW 15 17 8 9 - - -
04/08:00pm - - - - - SSW 15 17 8 9 - - -
04/07:30pm - - - - - SSE 20 28 11 15 - - -
04/07:00pm - - - - - SSE 24 30 13 16 - - -
04/06:30pm - - - - - SSE 24 30 13 16 - - -
04/06:00pm - - - - - SSE 30 35 16 19 - - -
04/05:30pm - - - - - SSE 32 35 17 19 - - -
04/05:00pm - - - - - SSE 32 37 17 20 - - -
04/04:30pm - - - - - SE 26 33 14 18 - - -
04/04:00pm - - - - - SE 20 30 11 16 - - -
04/03:30pm - - - - - SE 22 28 12 15 - - -
04/03:00pm - - - - - SE 28 33 15 18 - - -
04/02:30pm - - - - - SE 20 30 11 16 - - -
04/02:00pm - - - - - SE 26 33 14 18 - - -
04/01:30pm - - - - - SE 28 35 15 19 - - -
04/01:00pm - - - - - SE 24 32 13 17 - - -
04/12:30pm - - - - - SE 20 28 11 15 - - -
04/12:00pm - - - - - SE 24 30 13 16 - - -
04/11:30am - - - - - SE 17 24 9 13 - - -
04/11:00am - - - - - SSE 17 20 9 11 - - -
04/10:30am - - - - - SSE 17 24 9 13 - - -
04/10:00am - - - - - SSE 20 28 11 15 - - -
04/09:30am - - - - - S 22 30 12 16 - - -
04/09:00am - - - - - S 17 26 9 14 - - -
04/08:30am - - - - - SSW 13 17 7 9 - - -
04/08:00am - - - - - SSW 11 13 6 7 - - -
04/07:30am - - - - - SSW 9 9 5 5 - - -

Other formats

Comma delimited format used in spreadsheet applications
http://www.bom.gov.au/fwo/IDQ60801/IDQ60801.99367.axf

JavaScript Object Notation format (JSON) in row-major order
http://www.bom.gov.au/fwo/IDQ60801/IDQ60801.99367.json

Data quality

Most of these data are generated automatically and are frequently updated. Quality checks on data are not normally performed. It is possible for incorrect values to appear. Refer to information at About Latest Weather Observations and please check the disclaimer before using these data.